South Reno (Wolf Run), Nevada Weather observations

Data are for observation ending at time listed.
 Day   Time    Ave.   Ave.  Ave.  Vector   Max.   Stn.    Total    Solar   Ave.  
  of    of     Air    Rel.  Wind   Wind    Wind   Baro.  Precip.   Rad.    Soil  
Year   Day     Temp.  Hum.  Speed  Dir.    Gust   Pres.                    Temp. 
2015   (PST)    F      %     mph   deg.    mph     mb.     in.     W/m2     F   
------------------------------------------------------------------------------
  31   14:20   52.1    17    3.5   142      8.4  99999.0    0.00     484    40.3
  31   14:30   53.4    16    2.9   106      7.4  99999.0    0.00     449    40.4
  31   14:40   53.1    16    2.4   112      4.8  99999.0    0.00     446    40.5
  31   14:50   54.1    15    4.0    35      6.7  99999.0    0.00     421    40.6
  31   15:00   54.2    16    3.3    27      6.9  99999.0    0.00     397    40.7
  31   15:10   53.8    20    5.7     1     10.8  99999.0    0.00     372    40.8
  31   15:20   53.0    22    5.4   347      9.0  99999.0    0.00     346    40.9
  31   15:30   52.6    22    5.0    23      9.9  99999.0    0.00     308    41.0
  31   15:40   53.0    22    4.2   342      7.0  99999.0    0.00     290    41.1
  31   15:50   53.1    22    4.5   350      7.3  99999.0    0.00     261    41.1
  31   16:00   52.6    22    3.7     2      6.7  99999.0    0.00     231    41.2
  31   16:10   52.3    22    3.9    31      7.3  99999.0    0.00     201    41.3
  31   16:20   52.3    22    2.4   359      4.2  99999.0    0.00     173    41.3
  31   16:30   52.9    23    0.9   338      3.1  99999.0    0.00     146    41.4
  31   16:40   51.3    23    0.0     0      0.0  99999.0    0.00      33    41.4
  31   16:50   47.4    26    1.5   222      3.5  99999.0    0.00      15    41.5
  31   17:00   42.6    30    2.2   231      2.8  99999.0    0.00      12    41.5
  31   17:10   40.8    33    5.3   233      8.4  99999.0    0.00       9    41.5
  31   17:20   42.0    32    6.4   238      8.6  99999.0    0.00       5    41.5
  31   17:30   42.0    31    7.5   238     12.0  99999.0    0.00       2    41.5
  31   17:40   42.6    29    6.6   242      9.3  99999.0    0.00       0    41.5
  31   17:50   41.6    30    4.3   241      6.7  99999.0    0.00       0    41.5
  31   18:00   40.0    31    7.1   233      9.1  99999.0    0.00       0    41.5
  31   18:10   39.9    31    7.7   239      9.9  99999.0    0.00       0    41.5
  31   18:20   40.7    29    7.4   240     10.1  99999.0    0.00       0    41.5
  31   18:30   42.3    26    6.5   245     11.5  99999.0    0.00       0    41.4
  31   18:40   41.7    28    1.1     8      4.7  99999.0    0.00       0    41.4
  31   18:50   41.5    27    1.0   191      4.1  99999.0    0.00       0    41.4
  31   19:00   39.9    27    3.4   260      5.3  99999.0    0.00       0    41.3
  31   19:10   39.5    29    3.6   268      5.8  99999.0    0.00       0    41.3
  31   19:20   38.4    31    4.9   267      7.0  99999.0    0.00       0    41.2
  31   19:30   37.8    31    5.3   258      7.0  99999.0    0.00       0    41.2
  31   19:40   36.8    32    4.8   244      7.5  99999.0    0.00       0    41.1
  31   19:50   37.7    36    5.1   243      8.2  99999.0    0.00       0    41.1
  31   20:00   37.1    36    6.9   228      9.7  99999.0    0.00       0    41.0
  31   20:10   37.1    35    5.8   223      8.1  99999.0    0.00       0    41.0
  31   20:20   38.5    30    5.9   230      8.7  99999.0    0.00       0    40.9
  31   20:30   39.7    29    4.4   238      6.5  99999.0    0.00       0    40.9
  31   20:40   38.9    30    3.6   218      5.9  99999.0    0.00       0    40.8
  31   20:50   37.2    32    3.0   297      4.8  99999.0    0.00       0    40.8
  31   21:00   37.0    35    4.7   314     10.2  99999.0    0.00       0    40.7
  31   21:10   38.4    38    4.7   289      9.2  99999.0    0.00       0    40.7
  31   21:20   37.4    40    2.7   228      5.3  99999.0    0.00       0    40.6
  31   21:30   35.7    42    2.1   227      5.2  99999.0    0.00       0    40.6
  31   21:40   34.9    43    4.0   234      6.3  99999.0    0.00       0    40.5
  31   21:50   36.2    38    5.3   241      8.7  99999.0    0.00       0    40.5
  31   22:00   36.2    36    4.4   229      6.9  99999.0    0.00       0    40.5
  31   22:10   35.8    36    6.2   236     10.3  99999.0    0.00       0    40.4
  31   22:20   35.1    36    4.2   242      6.9  99999.0    0.00       0    40.4
  31   22:30   33.0    42    3.7   254      5.8  99999.0    0.00       0    40.3
  31   22:40   32.8    44    3.8   250      6.8  99999.0    0.00       0    40.3
  31   22:50   32.0    46    3.7   237      6.1  99999.0    0.00       0    40.2
  31   23:00   31.3    46    3.7   231      5.4  99999.0    0.00       0    40.2
  31   23:10   31.5    45    2.8   235      3.4  99999.0    0.00       0    40.1
  31   23:20   31.5    44    3.1   245      6.8  99999.0    0.00       0    40.1
  31   23:30   30.9    45    4.4   237      7.5  99999.0    0.00       0    40.0
  31   23:40   30.5    46    4.4   240      6.8  99999.0    0.00       0    40.0
  31   23:50   30.4    46    4.6   231      6.7  99999.0    0.00       0    39.9
  32    0:00   31.2    43    5.7   232      7.1  99999.0    0.00       0    39.9
  32    0:10   31.1    44    4.2   243      6.7  99999.0    0.00       0    39.9
  32    0:20   31.2    43    3.1   247      4.8  99999.0    0.00       0    39.8
  32    0:30   31.1    43    3.6   236      6.1  99999.0    0.00       0    39.8
  32    0:40   32.0    41    5.3   236      7.3  99999.0    0.00       0    39.7
  32    0:50   32.0    43    4.4   237      5.9  99999.0    0.00       0    39.7
  32    1:00   31.7    44    4.6   234      6.5  99999.0    0.00       0    39.6
  32    1:10   31.4    44    4.1   233      6.1  99999.0    0.00       0    39.6
  32    1:20   31.2    44    4.2   236      6.7  99999.0    0.00       0    39.5
  32    1:30   32.0    43    6.4   236      9.0  99999.0    0.00       0    39.5
  32    1:40   34.2    41    4.2   249      7.5  99999.0    0.00       0    39.5
  32    1:50   34.5    41    4.2   242      9.5  99999.0    0.00       0    39.4
  32    2:00   33.8    43    7.5   241     10.8  99999.0    0.00       0    39.4
  32    2:10   33.6    45    6.4   242      8.6  99999.0    0.00       0    39.3
  32    2:20   33.3    46    2.6   242      5.0  99999.0    0.00       0    39.3
  32    2:30   32.7    47    1.9   240      4.8  99999.0    0.00       0    39.3
  32    2:40   32.8    49    0.6   263      2.9  99999.0    0.00       0    39.2
  32    2:50   33.1    48    2.0    66      3.9  99999.0    0.00       0    39.2
  32    3:00   32.4    48    1.5    84      3.4  99999.0    0.00       0    39.1
  32    3:10   31.7    48    0.7   101      3.9  99999.0    0.00       0    39.1
  32    3:20   30.4    52    1.3   151      4.6  99999.0    0.00       0    39.0
  32    3:30   32.8    48    1.5   324      3.8  99999.0    0.00       0    39.0
  32    3:40   32.9    47    1.4   292      5.6  99999.0    0.00       0    39.0
  32    3:50   31.1    51    2.0   134      4.2  99999.0    0.00       0    38.9
  32    4:00   27.8    56    2.8   120      5.1  99999.0    0.00       0    38.9
  32    4:10   26.6    60    1.7   198      5.3  99999.0    0.00       0    38.8
  32    4:20   28.2    56    2.3   203      6.5  99999.0    0.00       0    38.8
  32    4:30   28.8    56    2.1   185      5.4  99999.0    0.00       0    38.8
  32    4:40   28.5    56    1.9   175      3.8  99999.0    0.00       0    38.7
  32    4:50   27.4    58    3.7   208      5.2  99999.0    0.00       0    38.7
  32    5:00   26.8    59    2.6   218      5.4  99999.0    0.00       0    38.6
  32    5:10   31.3    49    4.5   215      8.6  99999.0    0.00       0    38.6
  32    5:20   30.6    50    0.3   321      2.3  99999.0    0.00       0    38.6
  32    5:30   29.4    52    1.6   250      3.1  99999.0    0.00       0    38.5
  32    5:40   27.6    56    0.4   252      3.3  99999.0    0.00       0    38.5
  32    5:50   28.2    54    1.9   258      4.9  99999.0    0.00       0    38.5
  32    6:00   28.6    52    3.2   252      5.1  99999.0    0.00       0    38.4
  32    6:10   30.4    48    4.2   249      5.6  99999.0    0.00       0    38.4
  32    6:20   29.6    48    1.0   279      2.6  99999.0    0.00       0    38.3
  32    6:30   30.2    50    0.5   330      2.3  99999.0    0.00       0    38.3
  32    6:40   29.7    51    0.7    74      2.4  99999.0    0.00       0    38.3
  32    6:50   26.5    56    1.5   261      2.5  99999.0    0.00       0    38.2
  32    7:00   25.8    58    0.7   256      3.0  99999.0    0.00       4    38.2
  32    7:10   26.9    56    0.7   279      2.3  99999.0    0.00      11    38.2
  32    7:20   27.5    56    0.4   321      2.0  99999.0    0.00      16    38.1
  32    7:30   28.4    54    1.2   321      5.0  99999.0    0.00      28    38.1
  32    7:40   29.9    54    1.0   307      3.3  99999.0    0.00      47    38.0
  32    7:50   30.7    52    0.0     0      0.0  99999.0    0.00      73    38.0
  32    8:00   32.4    49    0.1   151      1.3  99999.0    0.00     136    38.0
  32    8:10   33.4    48    1.6   146      4.0  99999.0    0.00     117    38.0
  32    8:20   32.6    50    0.9   156      2.7  99999.0    0.00      89    37.9
  32    8:30   33.8    47    0.0     0      0.0  99999.0    0.00     130    37.9
  32    8:40   34.6    47    0.7    31      2.5  99999.0    0.00     207    37.9
  32    8:50   35.5    47    1.1   360      3.3  99999.0    0.00     211    37.8
  32    9:00   33.7    49    3.0    38      4.1  99999.0    0.00     154    37.8
  32    9:10   33.7    50    1.9    80      3.5  99999.0    0.00     210    37.8
  32    9:20   34.5    49    2.4    99      4.5  99999.0    0.00     310    37.7
  32    9:30   35.8    45    0.2    98      2.0  99999.0    0.00     270    37.7
  32    9:40   36.1    46    1.7    74      3.9  99999.0    0.00     206    37.7
  32    9:50   35.7    47    2.3    81      3.5  99999.0    0.00     218    37.6
  32   10:00   36.8    45    1.8    11      4.2  99999.0    0.00     231    37.6
  32   10:10   37.1    44    2.5   355      4.5  99999.0    0.00     222    37.6
  32   10:20   37.5    44    1.3     9      4.5  99999.0    0.00     237    37.6
  32   10:30   37.7    43    2.9    69      4.9  99999.0    0.00     269    37.6
  32   10:40   38.5    42    1.4    86      4.2  99999.0    0.00     394    37.6
  32   10:50   40.4    39    1.5   102      3.8  99999.0    0.00     515    37.6
  32   11:00   42.3    36    1.4    55      4.0  99999.0    0.00     584    37.6
  32   11:10   43.5    34    1.4    92      3.9  99999.0    0.00     552    37.6
  32   11:20   43.6    34    1.3    38      3.7  99999.0    0.00     233    37.6
  32   11:30   43.3    33    2.8    84      4.9  99999.0    0.00     359    37.6
  32   11:40   44.3    32    3.0    75      5.6  99999.0    0.00     641    37.7
  32   11:50   45.3    31    3.7    65      6.2  99999.0    0.00     466    37.7
  32   12:00   45.6    30    2.0    56      6.0  99999.0    0.00     571    37.8
  32   12:10   47.1    30    4.0    16      8.2  99999.0    0.00     623    37.9
  32   12:20   47.4    29    2.6    28      6.2  99999.0    0.00     511    38.0
  32   12:30   48.5    28    1.9    26      5.2  99999.0    0.00     597    38.1
  32   12:40   48.9    27    1.5    70      4.3  99999.0    0.00     460    38.2
  32   12:50   49.2    27    2.1    82      3.7  99999.0    0.00     392    38.3
  32   13:00   50.0    27    3.4    80      5.8  99999.0    0.00     528    38.4
  32   13:10   50.8    26    3.4    74      5.9  99999.0    0.00     444    38.5
  32   13:20   51.7    24    1.9    88      5.7  99999.0    0.00     523    38.6
  32   13:30   53.6    23    1.1    76      3.3  99999.0    0.00     503    38.8
  32   13:40   54.2    22    1.9    90      5.4  99999.0    0.00     233    38.9
  32   13:50   53.6    22    2.5    58      4.6  99999.0    0.00     213    39.0
  32   14:00   55.3    21    4.0    42      6.1  99999.0    0.00     492    39.1
  32   14:10   55.4    21    4.3    33      6.4  99999.0    0.00     242    39.2

Return to South Reno, Nevada graphs page.


Western Regional Climate Center,wrcc@dri.edu